Time;durP1;ratioP1;P1;durP2;ratioP2;P2;SDS_P1;SDS_P2;PMS_P1;PMS_P2;Temp;Humidity;BMP_temperature;BMP_pressure;BME280_temperature;BME280_humidity;BME280_pressure;Samples;Min_cycle;Max_cycle;Signal;HPM_P1;HPM_P2
2022/04/06 00:01:36;;;;;;;;;;;;;;;;;;5036216;28;19905;-26
2022/04/06 00:04:02;;;;;;;;;;;;;;;;;;5036122;28;19921;-28
2022/04/06 00:06:29;;;;;;;;;;;;;;;;;;5036405;28;19909;-24
2022/04/06 00:08:55;;;;;;;;;;;;;;;;;;5036146;28;20248;-30
2022/04/06 00:11:23;;;;;;;;;;;;;;;;;;5036026;28;20303;-28
2022/04/06 00:13:51;;;;;;;;;;;;;;;;;;5036181;28;19909;-31
2022/04/06 00:16:17;;;;;;;;;;;;;;;;;;5036220;28;19936;-27
2022/04/06 00:18:43;;;;;;;;;;;;;;;;;;5035888;28;19913;-33
2022/04/06 00:21:09;;;;;;;;;;;;;;;;;;5036116;28;20214;-28
2022/04/06 00:23:36;;;;;;;;;;;;;;;;;;5035797;28;20256;-28
2022/04/06 00:26:03;;;;;;;;;;;;;;;;;;5036447;28;20099;-29
2022/04/06 00:28:29;;;;;;;;;;;;;;;;;;5035692;28;20324;-26
2022/04/06 00:30:56;;;;;;;;;;;;;;;;;;5018082;28;19917;-27
2022/04/06 00:33:22;;;;;;;;;;;;;;;;;;5018092;28;20264;-27
2022/04/06 00:38:32;;;;;;;;;;;;;;;;;;5035869;28;20058;-29
2022/04/06 00:40:58;;;;;;;;;;;;;;;;;;5035788;28;19933;-28
2022/04/06 00:43:26;;;;;;;;;;;;;;;;;;5035370;28;20317;-35
2022/04/06 00:45:52;;;;;;;;;;;;;;;;;;5017223;28;20285;-31
2022/04/06 00:48:19;;;;;;;;;;;;;;;;;;5035679;28;19928;-26
2022/04/06 00:50:45;;;;;;;;;;;;;;;;;;5035273;28;20356;-27
2022/04/06 00:53:11;;;;;;;;;;;;;;;;;;5035267;28;20295;-30
2022/04/06 00:55:39;;;;;;;;;;;;;;;;;;5035299;28;19954;-28
2022/04/06 00:58:05;;;;;;;;;;;;;;;;;;5035182;28;19920;-25
2022/04/06 01:00:32;;;;;;;;;;;;;;;;;;5035229;28;20037;-29
2022/04/06 01:02:58;;;;;;;;;;;;;;;;;;5017595;28;19913;-27
2022/04/06 01:05:25;;;;;;;;;;;;;;;;;;5034950;28;19921;-35
2022/04/06 01:07:52;;;;;;;;;;;;;;;;;;5035303;28;19929;-34
2022/04/06 01:10:18;;;;;;;;;;;;;;;;;;5034906;28;19913;-30
2022/04/06 01:12:44;;;;;;;;;;;;;;;;;;5035222;28;19916;-26
2022/04/06 01:15:11;;;;;;;;;;;;;;;;;;5035040;28;19921;-25
2022/04/06 01:17:37;;;;;;;;;;;;;;;;;;5034958;28;19913;-28
2022/04/06 01:20:03;;;;;;;;;;;;;;;;;;5034895;28;19913;-30
2022/04/06 01:22:29;;;;;;;;;;;;;;;;;;5034872;28;19909;-28
2022/04/06 01:24:56;;;;;;;;;;;;;;;;;;5034875;28;19991;-26
2022/04/06 01:30:07;;;;;;;;;;;;;;;;;;5035156;28;19973;-29
2022/04/06 01:32:35;;;;;;;;;;;;;;;;;;5034601;28;19949;-28
2022/04/06 01:35:01;;;;;;;;;;;;;;;;;;5034811;28;19989;-28
2022/04/06 01:37:28;;;;;;;;;;;;;;;;;;5034758;28;19913;-27
2022/04/06 01:39:54;;;;;;;;;;;;;;;;;;5034763;28;19913;-28
2022/04/06 01:42:20;;;;;;;;;;;;;;;;;;5034653;28;20363;-29
2022/04/06 01:44:46;;;;;;;;;;;;;;;;;;5034880;28;19972;-29
2022/04/06 01:47:12;;;;;;;;;;;;;;;;;;5034666;28;20248;-29
2022/04/06 01:52:23;;;;;;;;;;;;;;;;;;5034489;28;19983;-30
2022/04/06 01:54:49;;;;;;;;;;;;;;;;;;5034581;28;19953;-28
2022/04/06 01:57:15;;;;;;;;;;;;;;;;;;5037597;28;19913;-31
2022/04/06 01:59:41;;;;;;;;;;;;;;;;;;5038485;28;19909;-25
2022/04/06 02:02:07;;;;;;;;;;;;;;;;;;5038429;28;19912;-28
2022/04/06 02:04:34;;;;;;;;;;;;;;;;;;5038398;28;19928;-31
2022/04/06 02:07:00;;;;;;;;;;;;;;;;;;5038641;28;19913;-33
2022/04/06 02:09:26;;;;;;;;;;;;;;;;;;5038378;28;19928;-28
2022/04/06 02:11:52;;;;;;;;;;;;;;;;;;5038217;28;19975;-33
2022/04/06 02:14:18;;;;;;;;;;;;;;;;;;5038252;28;19920;-27
2022/04/06 02:16:44;;;;;;;;;;;;;;;;;;5038530;28;19913;-27
2022/04/06 02:19:10;;;;;;;;;;;;;;;;;;5038508;28;19924;-28
2022/04/06 02:21:36;;;;;;;;;;;;;;;;;;5038113;28;19909;-27
2022/04/06 02:24:02;;;;;;;;;;;;;;;;;;5038056;28;20000;-29
2022/04/06 02:26:28;;;;;;;;;;;;;;;;;;5038317;28;19920;-29
2022/04/06 02:28:54;;;;;;;;;;;;;;;;;;5038209;28;19928;-26
2022/04/06 02:31:20;;;;;;;;;;;;;;;;;;5037868;28;19913;-26
2022/04/06 02:33:47;;;;;;;;;;;;;;;;;;5037879;28;19923;-27
2022/04/06 02:36:13;;;;;;;;;;;;;;;;;;5037839;28;19913;-30
2022/04/06 02:38:39;;;;;;;;;;;;;;;;;;5037777;28;19917;-33
2022/04/06 02:41:05;;;;;;;;;;;;;;;;;;5037979;28;20337;-32
2022/04/06 02:43:31;;;;;;;;;;;;;;;;;;5037580;28;19909;-33
2022/04/06 02:45:57;;;;;;;;;;;;;;;;;;5037630;28;20256;-30
2022/04/06 02:48:23;;;;;;;;;;;;;;;;;;5037849;28;20000;-29
2022/04/06 02:50:49;;;;;;;;;;;;;;;;;;5037546;28;19949;-27
2022/04/06 02:53:15;;;;;;;;;;;;;;;;;;5037665;28;20427;-31
2022/04/06 02:55:41;;;;;;;;;;;;;;;;;;5037487;28;20035;-30
2022/04/06 02:58:07;;;;;;;;;;;;;;;;;;5037779;28;19999;-27
2022/04/06 03:00:33;;;;;;;;;;;;;;;;;;5037680;28;19940;-24
2022/04/06 03:02:59;;;;;;;;;;;;;;;;;;5037294;28;20001;-26
2022/04/06 03:05:25;;;;;;;;;;;;;;;;;;5037201;28;19921;-28
2022/04/06 03:07:51;;;;;;;;;;;;;;;;;;5036623;28;20299;-28
2022/04/06 03:10:17;;;;;;;;;;;;;;;;;;5037212;28;19909;-27
2022/04/06 03:12:43;;;;;;;;;;;;;;;;;;5037029;28;19932;-26
2022/04/06 03:15:09;;;;;;;;;;;;;;;;;;5020401;28;19914;-27
2022/04/06 03:17:35;;;;;;;;;;;;;;;;;;5037071;28;19913;-30
2022/04/06 03:20:02;;;;;;;;;;;;;;;;;;5037545;28;19920;-28
2022/04/06 03:22:28;;;;;;;;;;;;;;;;;;5036908;28;19913;-30
2022/04/06 03:24:54;;;;;;;;;;;;;;;;;;5036962;28;19909;-31
2022/04/06 03:27:20;;;;;;;;;;;;;;;;;;5036844;28;20000;-30
2022/04/06 03:29:46;;;;;;;;;;;;;;;;;;5037185;28;20010;-31
2022/04/06 03:32:12;;;;;;;;;;;;;;;;;;5019168;28;19917;-33
2022/04/06 03:34:39;;;;;;;;;;;;;;;;;;5037002;28;19909;-27
2022/04/06 03:37:06;;;;;;;;;;;;;;;;;;5036663;28;20324;-28
2022/04/06 03:39:33;;;;;;;;;;;;;;;;;;5036867;28;20245;-27
2022/04/06 03:42:00;;;;;;;;;;;;;;;;;;5036478;28;19921;-30
2022/04/06 03:44:26;;;;;;;;;;;;;;;;;;5036417;28;19909;-28
2022/04/06 03:46:53;;;;;;;;;;;;;;;;;;5036371;28;19920;-29
2022/04/06 03:49:19;;;;;;;;;;;;;;;;;;5019204;28;20394;-30
2022/04/06 03:51:45;;;;;;;;;;;;;;;;;;5036054;28;19917;-29
2022/04/06 03:54:13;;;;;;;;;;;;;;;;;;5018664;28;19909;-26
2022/04/06 03:56:40;;;;;;;;;;;;;;;;;;5036161;28;20025;-27
2022/04/06 03:59:06;;;;;;;;;;;;;;;;;;5035838;28;19920;-28
2022/04/06 04:01:36;;;;;;;;;;;;;;;;;;5036084;28;20374;-25
2022/04/06 04:04:04;;;;;;;;;;;;;;;;;;5018130;28;19921;-30
2022/04/06 04:06:30;;;;;;;;;;;;;;;;;;5035802;28;19964;-27
2022/04/06 04:08:56;;;;;;;;;;;;;;;;;;5035932;28;19936;-32
2022/04/06 04:11:22;;;;;;;;;;;;;;;;;;5035810;28;20349;-26
2022/04/06 04:13:49;;;;;;;;;;;;;;;;;;5018083;28;19975;-32
2022/04/06 04:16:18;;;;;;;;;;;;;;;;;;5035304;28;19913;-31
2022/04/06 04:18:44;;;;;;;;;;;;;;;;;;5035305;28;20019;-28
2022/04/06 04:23:55;;;;;;;;;;;;;;;;;;5035149;28;19966;-30
2022/04/06 04:26:22;;;;;;;;;;;;;;;;;;5035130;28;20322;-31
2022/04/06 04:28:48;;;;;;;;;;;;;;;;;;5017632;28;19955;-34
2022/04/06 04:31:14;;;;;;;;;;;;;;;;;;5035192;28;19928;-31
2022/04/06 04:33:41;;;;;;;;;;;;;;;;;;5035029;28;19913;-27
2022/04/06 04:36:08;;;;;;;;;;;;;;;;;;5035068;28;19913;-27
2022/04/06 04:38:34;;;;;;;;;;;;;;;;;;5034658;28;19939;-28
2022/04/06 04:41:01;;;;;;;;;;;;;;;;;;5034857;28;19920;-27
2022/04/06 04:43:27;;;;;;;;;;;;;;;;;;5016730;28;19940;-28
2022/04/06 04:45:53;;;;;;;;;;;;;;;;;;5034785;28;20292;-25
2022/04/06 04:48:20;;;;;;;;;;;;;;;;;;5034728;28;19909;-25
2022/04/06 04:50:46;;;;;;;;;;;;;;;;;;5034554;28;19917;-31
2022/04/06 04:53:12;;;;;;;;;;;;;;;;;;5034514;28;19952;-25
2022/04/06 04:55:38;;;;;;;;;;;;;;;;;;5034152;28;19909;-29
2022/04/06 04:58:04;;;;;;;;;;;;;;;;;;5034623;28;19917;-26
2022/04/06 05:00:30;;;;;;;;;;;;;;;;;;5034622;28;19921;-31
2022/04/06 05:02:56;;;;;;;;;;;;;;;;;;5034542;28;20263;-31
2022/04/06 05:05:22;;;;;;;;;;;;;;;;;;5034558;28;20253;-28
2022/04/06 05:07:50;;;;;;;;;;;;;;;;;;5034809;28;19909;-32
2022/04/06 05:10:17;;;;;;;;;;;;;;;;;;5016706;28;19936;-27
2022/04/06 05:12:45;;;;;;;;;;;;;;;;;;5034295;28;19913;-26
2022/04/06 05:15:12;;;;;;;;;;;;;;;;;;5034297;28;19999;-28
2022/04/06 05:17:40;;;;;;;;;;;;;;;;;;5034141;28;19917;-28
2022/04/06 05:20:08;;;;;;;;;;;;;;;;;;5034202;28;19913;-30
2022/04/06 05:22:35;;;;;;;;;;;;;;;;;;5034586;28;19936;-34
2022/04/06 05:25:04;;;;;;;;;;;;;;;;;;5036581;28;19919;-32
2022/04/06 05:27:31;;;;;;;;;;;;;;;;;;5018530;28;19913;-31
2022/04/06 05:29:57;;;;;;;;;;;;;;;;;;5034522;28;19935;-30
2022/04/06 05:32:24;;;;;;;;;;;;;;;;;;5033806;28;20277;-29
2022/04/06 05:34:51;;;;;;;;;;;;;;;;;;5034144;28;19921;-31
2022/04/06 05:37:20;;;;;;;;;;;;;;;;;;5034490;28;19913;-30
2022/04/06 05:39:47;;;;;;;;;;;;;;;;;;5037001;28;19919;-30
2022/04/06 05:42:15;;;;;;;;;;;;;;;;;;5036464;28;19913;-32
2022/04/06 05:44:41;;;;;;;;;;;;;;;;;;5018754;28;20363;-27
2022/04/06 05:47:08;;;;;;;;;;;;;;;;;;5018766;28;19913;-31
2022/04/06 05:49:35;;;;;;;;;;;;;;;;;;5018985;28;19913;-26
2022/04/06 05:52:02;;;;;;;;;;;;;;;;;;5034513;28;19917;-29
2022/04/06 05:54:29;;;;;;;;;;;;;;;;;;5016075;28;20246;-32
2022/04/06 05:56:55;;;;;;;;;;;;;;;;;;5033585;28;19916;-29
2022/04/06 05:59:21;;;;;;;;;;;;;;;;;;5016152;28;19913;-32
2022/04/06 06:01:47;;;;;;;;;;;;;;;;;;5033373;28;20260;-32
2022/04/06 06:07:00;;;;;;;;;;;;;;;;;;5033590;28;19967;-32
2022/04/06 06:09:26;;;;;;;;;;;;;;;;;;5033421;28;19920;-34
2022/04/06 06:11:54;;;;;;;;;;;;;;;;;;5015211;28;20264;-29
2022/04/06 06:14:20;;;;;;;;;;;;;;;;;;5032864;28;20415;-35
2022/04/06 06:16:46;;;;;;;;;;;;;;;;;;5033001;28;20039;-32
2022/04/06 06:19:14;;;;;;;;;;;;;;;;;;5032597;28;20255;-35
2022/04/06 06:21:42;;;;;;;;;;;;;;;;;;5032850;28;20216;-30
2022/04/06 06:24:08;;;;;;;;;;;;;;;;;;5032772;28;19995;-33
2022/04/06 06:26:35;;;;;;;;;;;;;;;;;;5032973;28;19916;-34
2022/04/06 06:29:01;;;;;;;;;;;;;;;;;;5015079;28;19913;-29
2022/04/06 06:31:31;;;;;;;;;;;;;;;;;;5015198;28;20031;-32
2022/04/06 06:33:57;;;;;;;;;;;;;;;;;;5015016;28;19990;-25
2022/04/06 06:36:23;;;;;;;;;;;;;;;;;;5032740;28;19944;-28
2022/04/06 06:38:49;;;;;;;;;;;;;;;;;;5033275;28;19923;-30
2022/04/06 06:41:15;;;;;;;;;;;;;;;;;;5033116;28;20368;-30
2022/04/06 06:43:41;;;;;;;;;;;;;;;;;;5035413;28;19921;-30
2022/04/06 06:46:12;;;;;;;;;;;;;;;;;;5037553;28;19920;-27
2022/04/06 06:48:38;;;;;;;;;;;;;;;;;;5037304;28;19913;-26
2022/04/06 06:51:04;;;;;;;;;;;;;;;;;;5036935;28;19928;-25
2022/04/06 06:53:30;;;;;;;;;;;;;;;;;;5036865;28;20000;-26
2022/04/06 06:55:56;;;;;;;;;;;;;;;;;;5036727;28;19913;-25
2022/04/06 06:58:22;;;;;;;;;;;;;;;;;;5036587;28;20031;-23
2022/04/06 07:00:48;;;;;;;;;;;;;;;;;;5036507;28;19920;-31
2022/04/06 07:03:14;;;;;;;;;;;;;;;;;;5036835;28;20357;-29
2022/04/06 07:05:40;;;;;;;;;;;;;;;;;;5036733;28;19921;-30
2022/04/06 07:08:07;;;;;;;;;;;;;;;;;;5019060;28;19912;-29
2022/04/06 07:10:33;;;;;;;;;;;;;;;;;;5036633;28;19913;-27
2022/04/06 07:12:59;;;;;;;;;;;;;;;;;;5036427;28;20363;-29
2022/04/06 07:15:25;;;;;;;;;;;;;;;;;;5036442;28;19913;-26
2022/04/06 07:17:51;;;;;;;;;;;;;;;;;;5036715;28;19913;-27
2022/04/06 07:20:17;;;;;;;;;;;;;;;;;;5036528;28;19913;-30
2022/04/06 07:22:43;;;;;;;;;;;;;;;;;;5036366;28;19986;-33
2022/04/06 07:25:10;;;;;;;;;;;;;;;;;;5036386;28;19920;-28
2022/04/06 07:27:36;;;;;;;;;;;;;;;;;;5036125;28;20348;-29
2022/04/06 07:30:02;;;;;;;;;;;;;;;;;;5036037;28;20001;-30
2022/04/06 07:32:28;;;;;;;;;;;;;;;;;;5036246;28;20323;-25
2022/04/06 07:34:54;;;;;;;;;;;;;;;;;;5036184;28;19928;-29
2022/04/06 07:37:20;;;;;;;;;;;;;;;;;;5036298;28;20024;-35
2022/04/06 07:39:46;;;;;;;;;;;;;;;;;;5035808;28;19909;-27
2022/04/06 07:42:12;;;;;;;;;;;;;;;;;;5035758;28;19948;-24
2022/04/06 07:44:39;;;;;;;;;;;;;;;;;;5035869;28;19945;-29
2022/04/06 07:47:05;;;;;;;;;;;;;;;;;;5035987;28;20360;-27
2022/04/06 07:49:31;;;;;;;;;;;;;;;;;;5036210;28;19924;-28
2022/04/06 07:51:57;;;;;;;;;;;;;;;;;;5018170;28;20289;-25
2022/04/06 07:54:23;;;;;;;;;;;;;;;;;;5035639;28;20027;-25
2022/04/06 07:56:49;;;;;;;;;;;;;;;;;;5035889;28;19955;-26
2022/04/06 07:59:15;;;;;;;;;;;;;;;;;;5035776;28;20011;-28
2022/04/06 08:01:41;;;;;;;;;;;;;;;;;;5017880;28;19999;-26
2022/04/06 08:04:07;;;;;;;;;;;;;;;;;;5035292;28;19933;-28
2022/04/06 08:06:33;;;;;;;;;;;;;;;;;;5035641;28;19920;-26
2022/04/06 08:09:02;;;;;;;;;;;;;;;;;;5035768;28;19932;-27
2022/04/06 08:11:28;;;;;;;;;;;;;;;;;;5035342;28;19917;-26
2022/04/06 08:13:54;;;;;;;;;;;;;;;;;;5035197;28;19917;-31
2022/04/06 08:16:20;;;;;;;;;;;;;;;;;;5035604;28;19987;-26
2022/04/06 08:18:46;;;;;;;;;;;;;;;;;;5035064;28;20443;-31
2022/04/06 08:21:27;;;;;;;;;;;;;;;;;;5035436;28;19967;-26
2022/04/06 08:23:53;;;;;;;;;;;;;;;;;;5017000;28;20411;-32
2022/04/06 08:29:10;;;;;;;;;;;;;;;;;;5035254;28;19924;-30
2022/04/06 08:31:37;;;;;;;;;;;;;;;;;;5034909;28;20279;-33
2022/04/06 08:34:05;;;;;;;;;;;;;;;;;;5034829;28;19992;-30
2022/04/06 08:36:32;;;;;;;;;;;;;;;;;;5034575;28;20358;-27
2022/04/06 08:38:59;;;;;;;;;;;;;;;;;;5034809;28;19913;-27
2022/04/06 08:41:26;;;;;;;;;;;;;;;;;;5033956;28;19909;-30
2022/04/06 08:49:25;;;;;;;;;;;;;;;;;;4460360;26;19925;-24
2022/04/06 08:51:51;;;;;;;;;;;;;;;;;;5053530;28;19928;-24
2022/04/06 08:54:17;;;;;;;;;;;;;;;;;;5053969;28;20224;-25
2022/04/06 08:56:44;;;;;;;;;;;;;;;;;;5053789;28;20220;-24
2022/04/06 08:59:10;;;;;;;;;;;;;;;;;;5053945;28;19939;-25
2022/04/06 09:01:36;;;;;;;;;;;;;;;;;;5053714;28;19917;-24
2022/04/06 09:04:03;;;;;;;;;;;;;;;;;;5053909;28;19912;-24
2022/04/06 09:06:32;;;;;;;;;;;;;;;;;;5052769;28;19944;-24
2022/04/06 09:08:59;;;;;;;;;;;;;;;;;;5053230;28;19909;-24
2022/04/06 09:11:28;;;;;;;;;;;;;;;;;;5053600;28;20258;-24
2022/04/06 09:13:54;;;;;;;;;;;;;;;;;;5054106;28;19908;-24
2022/04/06 09:16:20;;;;;;;;;;;;;;;;;;5053572;28;19924;-24
2022/04/06 09:18:46;;;;;;;;;;;;;;;;;;5053378;28;20381;-24
2022/04/06 09:21:12;;;;;;;;;;;;;;;;;;5053269;28;19912;-24
2022/04/06 09:23:39;;;;;;;;;;;;;;;;;;5053552;28;19917;-24
2022/04/06 09:26:05;;;;;;;;;;;;;;;;;;5054015;28;19982;-24
2022/04/06 09:28:31;;;;;;;;;;;;;;;;;;5054143;28;19912;-24
2022/04/06 09:30:57;;;;;;;;;;;;;;;;;;5054189;28;19916;-24
2022/04/06 09:33:23;;;;;;;;;;;;;;;;;;5054468;28;19923;-25
2022/04/06 09:35:49;;;;;;;;;;;;;;;;;;5036579;28;20236;-24
2022/04/06 09:38:15;;;;;;;;;;;;;;;;;;5054222;28;20366;-24
2022/04/06 09:40:41;;;;;;;;;;;;;;;;;;5036456;28;20339;-24
2022/04/06 09:43:08;;;;;;;;;;;;;;;;;;5054158;28;19912;-24
2022/04/06 09:48:19;;;;;;;;;;;;;;;;;;5054063;28;19920;-25
2022/04/06 09:50:45;;;;;;;;;;;;;;;;;;5037058;28;19928;-25
2022/04/06 09:53:11;;;;;;;;;;;;;;;;;;5053786;28;20346;-25
2022/04/06 09:55:38;;;;;;;;;;;;;;;;;;5035799;28;19913;-25
2022/04/06 09:58:05;;;;;;;;;;;;;;;;;;5053504;28;19920;-25
2022/04/06 10:00:32;;;;;;;;;;;;;;;;;;5053596;28;20311;-25
2022/04/06 10:02:58;;;;;;;;;;;;;;;;;;5053596;28;19928;-25
2022/04/06 10:05:25;;;;;;;;;;;;;;;;;;5053689;28;19913;-26
2022/04/06 10:07:52;;;;;;;;;;;;;;;;;;5035953;28;19913;-25
2022/04/06 10:10:19;;;;;;;;;;;;;;;;;;5053827;28;20339;-25
2022/04/06 10:12:45;;;;;;;;;;;;;;;;;;5053541;28;19932;-25
2022/04/06 10:15:11;;;;;;;;;;;;;;;;;;5053583;28;19909;-25
2022/04/06 10:17:44;;;;;;;;;;;;;;;;;;5055533;28;19942;-25
2022/04/06 10:20:10;;;;;;;;;;;;;;;;;;5057609;28;19915;-25
2022/04/06 10:22:36;;;;;;;;;;;;;;;;;;5057474;28;20231;-25
2022/04/06 10:25:03;;;;;;;;;;;;;;;;;;5057524;28;20345;-25
2022/04/06 10:27:29;;;;;;;;;;;;;;;;;;5057360;28;19913;-25
2022/04/06 10:29:55;;;;;;;;;;;;;;;;;;5039660;28;19913;-25
2022/04/06 10:32:21;;;;;;;;;;;;;;;;;;5057304;28;20080;-25
2022/04/06 10:34:47;;;;;;;;;;;;;;;;;;5057584;28;19937;-25
2022/04/06 10:37:15;;;;;;;;;;;;;;;;;;5056706;28;19913;-25
2022/04/06 10:39:41;;;;;;;;;;;;;;;;;;5056877;28;19983;-25
2022/04/06 10:42:07;;;;;;;;;;;;;;;;;;5057012;28;20011;-25
2022/04/06 10:44:33;;;;;;;;;;;;;;;;;;5057158;28;19908;-25
2022/04/06 10:46:59;;;;;;;;;;;;;;;;;;5057454;28;19951;-25
2022/04/06 10:49:26;;;;;;;;;;;;;;;;;;5057281;28;19921;-25
2022/04/06 10:51:56;;;;;;;;;;;;;;;;;;5056906;28;19913;-25
2022/04/06 10:54:34;;;;;;;;;;;;;;;;;;5057140;28;19966;-25
2022/04/06 10:57:00;;;;;;;;;;;;;;;;;;5056085;28;19912;-25
2022/04/06 10:59:29;;;;;;;;;;;;;;;;;;5056103;28;20382;-25
2022/04/06 11:01:55;;;;;;;;;;;;;;;;;;5056030;28;19909;-25
2022/04/06 11:04:22;;;;;;;;;;;;;;;;;;5055910;28;19955;-25
2022/04/06 11:11:58;;;;;;;;;;;;;;;;;;5056183;28;19959;-25
2022/04/06 11:14:25;;;;;;;;;;;;;;;;;;5056089;28;20284;-24
2022/04/06 11:16:52;;;;;;;;;;;;;;;;;;5055805;28;19935;-28
2022/04/06 11:19:18;;;;;;;;;;;;;;;;;;5055873;28;19995;-25
2022/04/06 11:21:44;;;;;;;;;;;;;;;;;;5055766;28;19924;-25
2022/04/06 11:24:11;;;;;;;;;;;;;;;;;;5055989;28;20331;-24
2022/04/06 11:26:37;;;;;;;;;;;;;;;;;;5055843;28;19952;-24
2022/04/06 11:29:04;;;;;;;;;;;;;;;;;;5037011;28;19949;-25
2022/04/06 11:31:34;;;;;;;;;;;;;;;;;;5056189;28;19989;-24
2022/04/06 11:34:00;;;;;;;;;;;;;;;;;;5055643;28;19909;-25
2022/04/06 11:36:28;;;;;;;;;;;;;;;;;;5055652;28;20278;-25
2022/04/06 11:38:54;;;;;;;;;;;;;;;;;;5055644;28;19916;-25
2022/04/06 11:41:20;;;;;;;;;;;;;;;;;;5037382;28;20378;-24
2022/04/06 11:43:47;;;;;;;;;;;;;;;;;;5055430;28;19912;-25
2022/04/06 11:46:13;;;;;;;;;;;;;;;;;;5037942;28;19920;-25
2022/04/06 11:48:41;;;;;;;;;;;;;;;;;;5055450;28;19916;-24
2022/04/06 11:51:08;;;;;;;;;;;;;;;;;;5056129;28;19928;-24
2022/04/06 11:53:36;;;;;;;;;;;;;;;;;;5055596;28;19909;-24
2022/04/06 11:56:03;;;;;;;;;;;;;;;;;;5055677;28;20115;-24
2022/04/06 11:58:29;;;;;;;;;;;;;;;;;;5055380;28;20232;-24
2022/04/06 12:00:55;;;;;;;;;;;;;;;;;;5055466;28;20015;-24
2022/04/06 12:03:21;;;;;;;;;;;;;;;;;;5055616;28;19939;-25
2022/04/06 12:05:48;;;;;;;;;;;;;;;;;;5055544;28;19955;-25
2022/04/06 12:08:15;;;;;;;;;;;;;;;;;;5054933;28;19970;-24
2022/04/06 12:10:41;;;;;;;;;;;;;;;;;;5055485;28;20336;-25
2022/04/06 12:13:08;;;;;;;;;;;;;;;;;;5055429;28;19908;-25
2022/04/06 12:15:34;;;;;;;;;;;;;;;;;;5054908;28;19924;-24
2022/04/06 12:18:00;;;;;;;;;;;;;;;;;;5055223;28;19909;-25
2022/04/06 12:20:26;;;;;;;;;;;;;;;;;;5037255;28;20347;-25
2022/04/06 12:22:52;;;;;;;;;;;;;;;;;;5055025;28;19920;-25
2022/04/06 12:25:18;;;;;;;;;;;;;;;;;;5037172;28;19944;-25
2022/04/06 12:27:45;;;;;;;;;;;;;;;;;;5054781;28;19916;-25
2022/04/06 12:30:11;;;;;;;;;;;;;;;;;;5054796;28;19954;-25
2022/04/06 12:32:37;;;;;;;;;;;;;;;;;;5054868;28;19956;-25
2022/04/06 12:35:04;;;;;;;;;;;;;;;;;;5054924;28;20331;-25
2022/04/06 12:37:30;;;;;;;;;;;;;;;;;;5055123;28;20250;-25
2022/04/06 12:39:57;;;;;;;;;;;;;;;;;;5053971;28;20363;-25
2022/04/06 12:42:24;;;;;;;;;;;;;;;;;;5054264;28;19927;-25
2022/04/06 12:44:50;;;;;;;;;;;;;;;;;;5054559;28;20278;-25
2022/04/06 12:47:16;;;;;;;;;;;;;;;;;;5054585;28;19908;-25
2022/04/06 12:49:42;;;;;;;;;;;;;;;;;;5055205;28;19924;-25
2022/04/06 12:52:09;;;;;;;;;;;;;;;;;;5054728;28;19940;-25
2022/04/06 12:54:36;;;;;;;;;;;;;;;;;;5054630;28;19913;-25
2022/04/06 12:57:02;;;;;;;;;;;;;;;;;;5054775;28;19981;-25
2022/04/06 12:59:28;;;;;;;;;;;;;;;;;;5054298;28;20003;-25
2022/04/06 13:01:56;;;;;;;;;;;;;;;;;;5054428;28;19916;-25
2022/04/06 13:04:26;;;;;;;;;;;;;;;;;;5055141;28;20004;-25
2022/04/06 13:07:13;;;;;;;;;;;;;;;;;;5054764;28;19924;-25
2022/04/06 13:09:39;;;;;;;;;;;;;;;;;;5037682;28;19905;-25
2022/04/06 13:12:06;;;;;;;;;;;;;;;;;;5055037;28;20254;-25
2022/04/06 13:14:33;;;;;;;;;;;;;;;;;;5054364;28;19912;-24
2022/04/06 13:17:00;;;;;;;;;;;;;;;;;;5054435;28;20419;-25
2022/04/06 13:19:26;;;;;;;;;;;;;;;;;;5054241;28;19909;-25
2022/04/06 13:21:53;;;;;;;;;;;;;;;;;;5054316;28;20398;-25
2022/04/06 13:24:22;;;;;;;;;;;;;;;;;;5054530;28;20008;-25
2022/04/06 13:26:48;;;;;;;;;;;;;;;;;;5054128;28;20280;-25
2022/04/06 13:29:17;;;;;;;;;;;;;;;;;;5053554;28;20461;-25
2022/04/06 13:31:43;;;;;;;;;;;;;;;;;;5036634;28;20306;-25
2022/04/06 13:34:10;;;;;;;;;;;;;;;;;;5054332;28;19916;-25
2022/04/06 13:36:36;;;;;;;;;;;;;;;;;;5054276;28;20269;-25
2022/04/06 13:39:02;;;;;;;;;;;;;;;;;;5054486;28;19948;-25
2022/04/06 13:41:30;;;;;;;;;;;;;;;;;;5054237;28;19963;-25
2022/04/06 13:44:02;;;;;;;;;;;;;;;;;;5054242;28;19916;-25
2022/04/06 13:46:28;;;;;;;;;;;;;;;;;;5054325;28;19913;-25
2022/04/06 13:48:57;;;;;;;;;;;;;;;;;;5053718;28;20363;-25
2022/04/06 13:51:23;;;;;;;;;;;;;;;;;;5054156;28;19974;-24
2022/04/06 13:53:52;;;;;;;;;;;;;;;;;;5058598;28;20008;-25
2022/04/06 13:56:34;;;;;;;;;;;;;;;;;;;;;
2022/04/06 14:07:44;;;;;;;;;;;;;;;;;;5036180;28;20271;-25
2022/04/06 14:10:11;;;;;;;;;;;;;;;;;;5046129;28;19923;-25
2022/04/06 14:12:37;;;;;;;;;;;;;;;;;;5057610;28;19944;-25
2022/04/06 14:15:16;;;;;;;;;;;;;;;;;;5057555;28;19963;-26
2022/04/06 14:20:33;;;;;;;;;;;;;;;;;;5057864;28;19936;-25
2022/04/06 14:22:59;;;;;;;;;;;;;;;;;;5057468;28;20008;-25
2022/04/06 14:25:30;;;;;;;;;;;;;;;;;;5057564;28;20011;-25
2022/04/06 14:30:50;;;;;;;;;;;;;;;;;;5057659;28;20338;-25
2022/04/06 14:33:17;;;;;;;;;;;;;;;;;;5039487;28;19913;-25
2022/04/06 14:38:28;;;;;;;;;;;;;;;;;;5057822;28;20355;-25
2022/04/06 14:40:54;;;;;;;;;;;;;;;;;;5057133;28;19923;-25
2022/04/06 14:43:20;;;;;;;;;;;;;;;;;;5057056;28;19919;-25
2022/04/06 14:45:47;;;;;;;;;;;;;;;;;;5056981;28;19917;-25
2022/04/06 14:48:15;;;;;;;;;;;;;;;;;;5057114;28;19917;-25
2022/04/06 14:50:51;;;;;;;;;;;;;;;;;;5057089;28;19917;-25
2022/04/06 14:53:17;;;;;;;;;;;;;;;;;;5056815;28;20008;-25
2022/04/06 14:55:44;;;;;;;;;;;;;;;;;;5057039;28;19956;-25
2022/04/06 15:01:05;;;;;;;;;;;;;;;;;;5056697;28;19923;-25
2022/04/06 15:03:31;;;;;;;;;;;;;;;;;;5055227;28;19944;-25
2022/04/06 15:05:58;;;;;;;;;;;;;;;;;;5056453;28;20220;-25
2022/04/06 15:08:24;;;;;;;;;;;;;;;;;;5056401;28;20342;-25
2022/04/06 15:10:50;;;;;;;;;;;;;;;;;;5056058;28;20339;-25
2022/04/06 15:13:16;;;;;;;;;;;;;;;;;;5055832;28;19944;-25
2022/04/06 15:15:42;;;;;;;;;;;;;;;;;;5055589;28;19939;-24
2022/04/06 15:18:08;;;;;;;;;;;;;;;;;;5055660;28;20323;-24
2022/04/06 15:20:35;;;;;;;;;;;;;;;;;;5055693;28;19913;-24
2022/04/06 15:23:02;;;;;;;;;;;;;;;;;;5037804;28;19909;-24
2022/04/06 15:25:28;;;;;;;;;;;;;;;;;;5055453;28;19912;-24
2022/04/06 15:27:55;;;;;;;;;;;;;;;;;;5055370;28;20053;-24
2022/04/06 15:30:21;;;;;;;;;;;;;;;;;;5055603;28;19975;-24
2022/04/06 15:32:49;;;;;;;;;;;;;;;;;;5055455;28;20014;-24
2022/04/06 15:38:01;;;;;;;;;;;;;;;;;;5056137;28;19919;-24
2022/04/06 15:40:27;;;;;;;;;;;;;;;;;;5055851;28;19913;-24
2022/04/06 15:42:53;;;;;;;;;;;;;;;;;;5056508;28;19913;-24
2022/04/06 15:45:19;;;;;;;;;;;;;;;;;;5038521;28;19940;-24
2022/04/06 15:47:45;;;;;;;;;;;;;;;;;;5056124;28;19913;-24
2022/04/06 15:50:12;;;;;;;;;;;;;;;;;;5038272;28;19991;-26
2022/04/06 15:52:38;;;;;;;;;;;;;;;;;;5055813;28;19917;-24
2022/04/06 15:55:05;;;;;;;;;;;;;;;;;;5056299;28;20246;-24
2022/04/06 15:57:31;;;;;;;;;;;;;;;;;;5056035;28;19924;-24
2022/04/06 15:59:57;;;;;;;;;;;;;;;;;;5055939;28;19912;-24
2022/04/06 16:05:15;;;;;;;;;;;;;;;;;;5055709;28;19975;-24
2022/04/06 16:07:41;;;;;;;;;;;;;;;;;;5055353;28;19913;-24
2022/04/06 16:10:07;;;;;;;;;;;;;;;;;;5055781;28;19909;-24
2022/04/06 16:12:33;;;;;;;;;;;;;;;;;;5055763;28;19927;-25
2022/04/06 16:14:59;;;;;;;;;;;;;;;;;;5055432;28;19996;-25
2022/04/06 16:17:25;;;;;;;;;;;;;;;;;;5055742;28;19909;-25
2022/04/06 16:19:51;;;;;;;;;;;;;;;;;;5055482;28;19913;-23
2022/04/06 16:22:17;;;;;;;;;;;;;;;;;;5055551;28;19976;-25
2022/04/06 16:24:43;;;;;;;;;;;;;;;;;;5055672;28;20354;-24
2022/04/06 16:27:09;;;;;;;;;;;;;;;;;;5055622;28;19970;-24
2022/04/06 16:29:37;;;;;;;;;;;;;;;;;;5055498;28;20297;-25
2022/04/06 16:32:03;;;;;;;;;;;;;;;;;;5055550;28;20208;-24
2022/04/06 16:34:29;;;;;;;;;;;;;;;;;;5055529;28;20390;-25
2022/04/06 16:36:56;;;;;;;;;;;;;;;;;;5055240;28;19913;-24
2022/04/06 16:39:40;;;;;;;;;;;;;;;;;;5055140;28;20349;-24
2022/04/06 16:42:06;;;;;;;;;;;;;;;;;;5055465;28;19941;-25
2022/04/06 16:44:33;;;;;;;;;;;;;;;;;;5055099;28;20012;-25
2022/04/06 16:46:59;;;;;;;;;;;;;;;;;;5055088;28;19947;-24
2022/04/06 16:52:39;;;;;;;;;;;;;;;;;;5037207;28;20411;-24
2022/04/06 16:54:57;;;;;;;;;;;;;;;;;;5054990;28;20393;-24
2022/04/06 16:57:23;;;;;;;;;;;;;;;;;;5054969;28;19913;-25
2022/04/06 16:59:51;;;;;;;;;;;;;;;;;;5054815;28;19919;-24
2022/04/06 17:02:18;;;;;;;;;;;;;;;;;;5054782;28;20000;-24
2022/04/06 17:04:45;;;;;;;;;;;;;;;;;;5037179;28;20385;-24
2022/04/06 17:07:11;;;;;;;;;;;;;;;;;;5054312;28;19913;-25
2022/04/06 17:09:37;;;;;;;;;;;;;;;;;;5054838;28;19927;-25
2022/04/06 17:12:05;;;;;;;;;;;;;;;;;;5054593;28;19921;-25
2022/04/06 17:14:31;;;;;;;;;;;;;;;;;;5054245;28;19924;-25
2022/04/06 17:16:57;;;;;;;;;;;;;;;;;;5054510;28;19909;-25
2022/04/06 17:19:23;;;;;;;;;;;;;;;;;;5054518;28;19917;-25
2022/04/06 17:21:49;;;;;;;;;;;;;;;;;;5054549;28;19920;-25
2022/04/06 17:24:15;;;;;;;;;;;;;;;;;;5054329;28;20339;-24
2022/04/06 17:26:42;;;;;;;;;;;;;;;;;;5053529;28;19916;-24
2022/04/06 17:29:08;;;;;;;;;;;;;;;;;;5053941;28;19996;-25
2022/04/06 17:31:34;;;;;;;;;;;;;;;;;;5036208;28;20019;-25
2022/04/06 17:34:00;;;;;;;;;;;;;;;;;;5053891;28;19913;-25
2022/04/06 17:36:26;;;;;;;;;;;;;;;;;;5054047;28;20058;-25
2022/04/06 17:38:52;;;;;;;;;;;;;;;;;;5053825;28;19948;-25
2022/04/06 17:41:19;;;;;;;;;;;;;;;;;;5053540;28;19932;-25